Terminal Aerodrome Forecast
Issued by NWS Detroit/Pontiac, MI

Home | Current Version | Previous Version | Text Only | Print | Product List | Glossary On
Versions: 1 2 3 4 5 6 7 8 9 10 11 12 13 14 15 16 17 18 19 20 21 22 23 24 25 26 27 28
599
FTUS43 KDTX 082338
TAFDTW
TAF
KDTW 082338Z 0900/1006 26013G20KT P6SM OVC040
      TEMPO 0900/0904 4SM -SN OVC025
     FM090400 28013KT P6SM BKN040
     FM091400 28013G20KT 6SM -SHSN OVC025
     FM092000 26013G20KT P6SM BKN040
     FM100100 24010KT P6SM BKN025=

USA.gov is the U.S. government's official web portal to all federal, state and local government web resources and services.